createdAt,value
2023-04-08T00:02:51.401Z,11.40
2023-04-08T00:07:55.397Z,10.63
2023-04-08T00:12:56.939Z,11.70
2023-04-08T00:17:58.521Z,11.18
2023-04-08T00:23:00.259Z,9.75
2023-04-08T00:28:01.842Z,11.00
2023-04-08T00:33:03.569Z,12.95
2023-04-08T00:38:08.050Z,12.27
2023-04-08T00:43:09.742Z,12.23
2023-04-08T00:48:11.620Z,12.82
2023-04-08T00:53:17.253Z,13.55
2023-04-08T00:58:19.402Z,11.57
2023-04-08T01:03:36.443Z,17.13
2023-04-08T01:08:41.054Z,14.02
2023-04-08T01:13:44.172Z,13.00
2023-04-08T01:18:48.047Z,13.73
2023-04-08T01:24:16.600Z,13.57
2023-04-08T01:29:19.324Z,12.45
2023-04-08T01:34:21.321Z,13.05
2023-04-08T01:39:23.914Z,16.48
2023-04-08T01:44:26.518Z,14.10
2023-04-08T01:49:30.547Z,13.57
2023-04-08T01:54:32.344Z,20.55
2023-04-08T01:59:37.788Z,15.68
2023-04-08T02:04:40.130Z,14.18
2023-04-08T02:09:42.336Z,16.65
2023-04-08T02:14:44.013Z,14.38
2023-04-08T02:20:00.592Z,14.30
2023-04-08T02:25:04.619Z,13.82
2023-04-08T02:30:08.138Z,12.60
2023-04-08T02:35:12.142Z,13.75
2023-04-08T02:40:23.734Z,14.90
2023-04-08T02:45:28.466Z,15.10
2023-04-08T02:50:30.132Z,17.00
2023-04-08T02:55:31.834Z,16.13
2023-04-08T03:00:33.545Z,20.70
2023-04-08T03:05:35.214Z,18.38
2023-04-08T03:10:36.768Z,18.67
2023-04-08T03:15:38.358Z,17.75
2023-04-08T03:20:39.874Z,15.77
2023-04-08T03:25:41.528Z,19.95
2023-04-08T03:30:43.152Z,19.30
2023-04-08T03:35:44.702Z,18.88
2023-04-08T03:40:46.404Z,19.90
2023-04-08T03:45:47.992Z,20.63
2023-04-08T03:50:49.541Z,20.30
2023-04-08T03:55:51.190Z,19.48
2023-04-08T04:00:52.706Z,18.70
2023-04-08T04:05:54.245Z,20.65
2023-04-08T04:10:55.753Z,19.00
2023-04-08T04:15:57.631Z,21.60
2023-04-08T04:20:59.190Z,18.88
2023-04-08T04:26:00.700Z,20.30
2023-04-08T04:31:02.320Z,21.83
2023-04-08T04:36:03.909Z,19.70
2023-04-08T04:41:05.622Z,21.08
2023-04-08T04:46:09.081Z,21.42
2023-04-08T04:51:10.784Z,19.38
2023-04-08T04:56:12.372Z,21.35
2023-04-08T05:01:13.927Z,20.85
2023-04-08T05:06:15.604Z,19.63
2023-04-08T05:11:18.481Z,20.65
2023-04-08T05:16:20.072Z,27.05
2023-04-08T05:21:21.681Z,20.88
2023-04-08T05:26:23.714Z,19.23
2023-04-08T05:31:25.733Z,21.27
2023-04-08T05:36:27.439Z,21.20
2023-04-08T05:41:29.093Z,18.77
2023-04-08T05:46:30.738Z,18.50
2023-04-08T05:51:32.306Z,19.20
2023-04-08T05:56:33.903Z,17.42
2023-04-08T06:01:35.520Z,19.35
2023-04-08T06:06:40.575Z,21.92
2023-04-08T06:11:42.141Z,18.42
2023-04-08T06:16:44.165Z,19.35
2023-04-08T06:21:45.827Z,20.00
2023-04-08T06:26:48.002Z,18.17
2023-04-08T06:31:50.395Z,21.95
2023-04-08T06:36:51.915Z,19.70
2023-04-08T06:41:54.791Z,19.33
2023-04-08T06:47:18.385Z,17.65
2023-04-08T06:52:19.929Z,16.23
2023-04-08T06:57:21.420Z,16.98
2023-04-08T07:02:23.369Z,23.50
2023-04-08T07:07:25.068Z,18.88
2023-04-08T07:12:26.583Z,18.38
2023-04-08T07:17:28.138Z,17.65
2023-04-08T07:22:29.771Z,17.00
2023-04-08T07:27:33.312Z,16.10
2023-04-08T07:32:35.412Z,17.13
2023-04-08T07:37:37.212Z,20.30
2023-04-08T07:42:40.721Z,17.33
2023-04-08T07:47:42.415Z,17.50
2023-04-08T07:52:43.952Z,16.83
2023-04-08T07:57:46.122Z,13.70
2023-04-08T08:02:48.663Z,15.85
2023-04-08T08:07:50.706Z,14.45
2023-04-08T08:12:52.211Z,15.13
2023-04-08T08:17:53.788Z,16.90
2023-04-08T08:22:57.570Z,13.63
2023-04-08T08:27:59.450Z,12.68
2023-04-08T08:33:01.061Z,14.75
2023-04-08T08:38:02.669Z,12.45
2023-04-08T08:43:04.242Z,12.95
2023-04-08T08:48:06.918Z,15.25
2023-04-08T08:53:09.577Z,14.85
2023-04-08T08:58:11.118Z,12.05
2023-04-08T09:03:24.858Z,14.82
2023-04-08T09:08:37.049Z,15.52
2023-04-08T09:13:39.082Z,15.40
2023-04-08T09:18:43.299Z,14.13
2023-04-08T09:23:45.969Z,14.50
2023-04-08T09:29:18.800Z,13.07
2023-04-08T09:34:28.392Z,13.20
2023-04-08T09:39:30.893Z,13.90
2023-04-08T09:44:33.952Z,14.45
2023-04-08T09:49:46.789Z,12.55
2023-04-08T09:54:55.604Z,13.80
2023-04-08T10:00:09.861Z,13.05
2023-04-08T10:05:18.509Z,13.65
2023-04-08T10:10:21.164Z,11.73
2023-04-08T10:15:33.247Z,12.27
2023-04-08T10:20:34.801Z,14.43
2023-04-08T10:25:46.393Z,11.30
2023-04-08T10:30:58.665Z,14.07
2023-04-08T10:36:07.168Z,12.43
2023-04-08T10:41:10.983Z,14.50
2023-04-08T10:46:12.575Z,11.18
2023-04-08T10:51:14.262Z,12.82
2023-04-08T10:56:17.873Z,13.93
2023-04-08T11:01:19.750Z,16.10
2023-04-08T11:06:21.351Z,14.35
2023-04-08T11:11:29.447Z,12.63
2023-04-08T11:16:31.189Z,14.15
2023-04-08T11:21:36.264Z,14.32
2023-04-08T11:26:38.563Z,14.18
2023-04-08T11:31:41.443Z,12.38
2023-04-08T11:36:43.048Z,14.45
2023-04-08T11:41:44.555Z,15.85
2023-04-08T11:46:57.184Z,15.88
2023-04-08T11:52:00.188Z,14.57
2023-04-08T11:57:03.055Z,14.13
2023-04-08T12:02:04.834Z,13.75
2023-04-08T12:07:06.369Z,13.77
2023-04-08T12:12:07.867Z,15.02
2023-04-08T12:17:09.418Z,14.93
2023-04-08T12:22:10.962Z,13.35
2023-04-08T12:27:12.684Z,13.70
2023-04-08T12:32:15.000Z,12.88
2023-04-08T12:37:16.494Z,13.32
2023-04-08T12:42:18.060Z,14.93
2023-04-08T12:47:20.099Z,14.35
2023-04-08T12:52:24.564Z,13.93
2023-04-08T12:57:27.315Z,14.25
2023-04-08T13:02:29.019Z,14.52
2023-04-08T13:07:35.300Z,15.55
2023-04-08T13:12:39.504Z,15.63
2023-04-08T13:17:42.194Z,15.00
2023-04-08T13:22:43.747Z,15.85
2023-04-08T13:27:45.857Z,15.40
2023-04-08T13:32:47.442Z,13.18
2023-04-08T13:37:49.048Z,13.23
2023-04-08T13:42:50.869Z,13.15
2023-04-08T13:47:52.469Z,14.60
2023-04-08T13:52:54.062Z,12.18
2023-04-08T13:57:56.078Z,12.65
2023-04-08T14:02:58.167Z,12.40
2023-04-08T14:07:59.688Z,14.73
2023-04-08T14:13:01.460Z,10.77
2023-04-08T14:18:03.300Z,10.35
2023-04-08T14:23:04.968Z,11.70
2023-04-08T14:28:06.493Z,10.13
2023-04-08T14:33:08.050Z,10.30
2023-04-08T14:38:10.126Z,9.85
2023-04-08T14:43:12.588Z,12.43
2023-04-08T14:48:14.113Z,10.73
2023-04-08T14:53:15.655Z,11.23
2023-04-08T14:58:17.257Z,10.48
2023-04-08T15:03:18.991Z,10.07
2023-04-08T15:08:30.730Z,10.10
2023-04-08T15:13:32.408Z,9.55
2023-04-08T15:18:33.901Z,12.57
2023-04-08T15:23:35.561Z,12.20
2023-04-08T15:28:38.166Z,10.70
2023-04-08T15:33:41.471Z,9.85
2023-04-08T15:38:42.970Z,10.30
2023-04-08T15:43:47.804Z,11.55
2023-04-08T15:48:50.892Z,9.32
2023-04-08T15:53:52.730Z,10.55
2023-04-08T15:58:54.481Z,9.20
2023-04-08T16:03:56.638Z,11.20
2023-04-08T16:08:58.213Z,8.38
2023-04-08T16:13:59.751Z,10.85
2023-04-08T16:19:02.264Z,10.05
2023-04-08T16:24:05.256Z,9.45
2023-04-08T16:29:07.513Z,10.90
2023-04-08T16:34:09.043Z,8.63
2023-04-08T16:39:10.716Z,10.40
2023-04-08T16:44:12.314Z,9.35
2023-04-08T16:49:15.555Z,9.77
2023-04-08T16:54:18.490Z,11.40
2023-04-08T16:59:19.996Z,12.10
2023-04-08T17:04:23.732Z,10.10
2023-04-08T17:09:25.631Z,11.25
2023-04-08T17:14:27.824Z,9.30
2023-04-08T17:19:29.397Z,9.00
2023-04-08T17:24:31.027Z,8.65
2023-04-08T17:29:32.559Z,9.57
2023-04-08T17:34:34.119Z,8.27
2023-04-08T17:39:40.656Z,8.20
2023-04-08T17:44:42.661Z,9.43
2023-04-08T17:49:44.245Z,9.18
2023-04-08T17:54:45.865Z,8.35
2023-04-08T17:59:47.414Z,9.25
2023-04-08T18:04:50.497Z,8.93
2023-04-08T18:09:52.280Z,9.27
2023-04-08T18:14:53.942Z,8.27
2023-04-08T18:19:55.539Z,9.90
2023-04-08T18:24:57.035Z,8.50
2023-04-08T18:29:58.546Z,6.43
2023-04-08T18:35:00.183Z,6.38
2023-04-08T18:40:02.811Z,8.82
2023-04-08T18:45:04.886Z,5.20
2023-04-08T18:50:06.707Z,6.30
2023-04-08T18:55:08.463Z,5.68
2023-04-08T19:00:10.644Z,4.85
2023-04-08T19:05:12.192Z,6.72
2023-04-08T19:10:13.752Z,8.15
2023-04-08T19:15:15.781Z,6.03
2023-04-08T19:20:17.460Z,5.78
2023-04-08T19:25:19.106Z,9.77
2023-04-08T19:30:20.806Z,7.03
2023-04-08T19:35:22.380Z,5.78
2023-04-08T19:40:24.097Z,6.10
2023-04-08T19:45:25.716Z,4.72
2023-04-08T19:50:28.171Z,6.13
2023-04-08T19:55:29.935Z,5.97
2023-04-08T20:00:31.572Z,4.70
2023-04-08T20:05:33.581Z,4.88
2023-04-08T20:10:35.763Z,6.28
2023-04-08T20:15:37.276Z,5.78
2023-04-08T20:20:38.954Z,6.35
2023-04-08T20:25:40.492Z,6.45
2023-04-08T20:30:41.993Z,5.65
2023-04-08T20:35:43.616Z,6.35
2023-04-08T20:40:45.522Z,7.75
2023-04-08T20:45:47.037Z,7.90
2023-04-08T20:50:49.082Z,5.45
2023-04-08T20:55:50.655Z,7.00
2023-04-08T21:00:52.222Z,7.25
2023-04-08T21:05:55.546Z,7.75
2023-04-08T21:10:57.147Z,6.00
2023-04-08T21:15:58.701Z,7.88
2023-04-08T21:21:00.426Z,7.00
2023-04-08T21:26:03.436Z,6.53
2023-04-08T21:31:12.384Z,6.22
2023-04-08T21:36:14.841Z,7.47
2023-04-08T21:41:17.266Z,7.53
2023-04-08T21:46:19.027Z,7.95
2023-04-08T21:51:23.069Z,8.02
2023-04-08T21:56:24.670Z,7.32
2023-04-08T22:01:26.641Z,7.40
2023-04-08T22:06:32.751Z,7.53
2023-04-08T22:11:34.635Z,6.95
2023-04-08T22:16:37.036Z,7.20
2023-04-08T22:21:38.606Z,7.78
2023-04-08T22:26:40.115Z,6.80
2023-04-08T22:31:41.666Z,8.32
2023-04-08T22:36:43.179Z,7.60
2023-04-08T22:41:47.122Z,9.88
2023-04-08T22:46:48.625Z,8.40
2023-04-08T22:51:50.893Z,7.90
2023-04-08T22:56:52.581Z,9.77
2023-04-08T23:01:54.256Z,7.22
2023-04-08T23:06:55.919Z,8.10
2023-04-08T23:11:58.233Z,9.00
2023-04-08T23:17:00.035Z,8.38
2023-04-08T23:22:01.532Z,8.48
2023-04-08T23:27:03.113Z,8.82
2023-04-08T23:32:04.900Z,9.70
2023-04-08T23:37:06.413Z,9.07
2023-04-08T23:42:07.933Z,10.60
2023-04-08T23:47:09.926Z,11.43
2023-04-08T23:52:11.431Z,10.55
2023-04-08T23:57:12.998Z,11.15
